Time;durP1;ratioP1;P1;durP2;ratioP2;P2;SDS_P1;SDS_P2;PMS_P1;PMS_P2;Temp;Humidity;BMP_temperature;BMP_pressure;BME280_temperature;BME280_humidity;BME280_pressure;Samples;Min_cycle;Max_cycle;Signal;HPM_P1;HPM_P2
2023/10/26 00:02:29;;;;;;;1.77;0.60;;;11.30;99.90;;;;;;7606475;19;20096;-71
2023/10/26 00:05:01;;;;;;;0.98;0.50;;;11.30;99.90;;;;;;7616405;19;20460;-71
2023/10/26 00:07:34;;;;;;;3.10;0.50;;;11.20;99.90;;;;;;7622756;19;20471;-70
2023/10/26 00:10:07;;;;;;;1.35;0.60;;;11.10;99.90;;;;;;7616380;19;20739;-73
2023/10/26 00:12:39;;;;;;;0.85;0.40;;;11.10;99.90;;;;;;7616225;19;20014;-71
2023/10/26 00:15:12;;;;;;;1.85;0.52;;;11.00;99.90;;;;;;7624187;19;20039;-71
2023/10/26 00:17:44;;;;;;;1.42;0.40;;;10.90;99.90;;;;;;7618435;19;20090;-71
2023/10/26 00:20:17;;;;;;;2.38;0.70;;;10.80;99.90;;;;;;7625662;19;20018;-72
2023/10/26 00:22:49;;;;;;;2.55;0.68;;;10.80;99.90;;;;;;7619973;19;20520;-70
2023/10/26 00:25:21;;;;;;;0.90;0.40;;;10.80;99.90;;;;;;7615754;19;20018;-71
2023/10/26 00:27:53;;;;;;;1.92;0.35;;;10.70;99.90;;;;;;7605699;19;20018;-72
2023/10/26 00:30:26;;;;;;;0.40;0.40;;;10.80;99.90;;;;;;7611477;19;20090;-71
2023/10/26 00:32:58;;;;;;;2.22;0.50;;;10.70;99.90;;;;;;7599076;19;20279;-72
2023/10/26 00:35:31;;;;;;;2.13;0.50;;;10.70;99.90;;;;;;7606953;19;20487;-72
2023/10/26 00:38:03;;;;;;;0.52;0.43;;;10.70;99.90;;;;;;7597329;19;20014;-70
2023/10/26 00:40:35;;;;;;;0.90;0.40;;;10.70;99.90;;;;;;7597588;19;20002;-71
2023/10/26 00:43:20;;;;;;;0.57;0.40;;;10.70;99.90;;;;;;7592782;19;20052;-72
2023/10/26 00:45:53;;;;;;;0.52;0.50;;;10.70;99.90;;;;;;7589101;19;20073;-70
2023/10/26 00:48:25;;;;;;;1.02;0.50;;;10.60;99.90;;;;;;7591065;19;20054;-72
2023/10/26 00:50:58;;;;;;;0.57;0.35;;;10.50;99.90;;;;;;7588665;19;20015;-71
2023/10/26 00:53:33;;;;;;;5.13;0.45;;;10.50;99.90;;;;;;7592964;19;20074;-71
2023/10/26 00:56:06;;;;;;;1.70;0.45;;;10.50;99.90;;;;;;7593287;19;20048;-72
2023/10/26 00:58:39;;;;;;;;;;;10.50;99.90;;;;;;7591464;19;20972;-71
2023/10/26 01:01:11;;;;;;;2.05;0.75;;;10.40;99.90;;;;;;7588668;19;19956;-71
2023/10/26 01:03:46;;;;;;;0.88;0.40;;;10.40;99.90;;;;;;7591119;19;20027;-71
2023/10/26 01:06:18;;;;;;;0.75;0.50;;;10.40;99.90;;;;;;7588827;19;20030;-72
2023/10/26 01:08:50;;;;;;;2.50;1.05;;;10.40;99.90;;;;;;7575073;19;20597;-72
2023/10/26 01:11:23;;;;;;;0.93;0.47;;;10.50;99.90;;;;;;7584205;19;20047;-71
2023/10/26 01:13:55;;;;;;;0.47;0.40;;;10.40;99.90;;;;;;7586545;19;20017;-72
2023/10/26 01:16:29;;;;;;;1.08;0.50;;;10.50;99.90;;;;;;7569388;19;20123;-72
2023/10/26 01:19:03;;;;;;;1.20;0.40;;;10.50;99.90;;;;;;7567919;19;21359;-70
2023/10/26 01:21:52;;;;;;;0.90;0.50;;;10.40;99.90;;;;;;7570405;19;20681;-70
2023/10/26 01:24:25;;;;;;;3.03;0.30;;;10.40;99.90;;;;;;7563917;19;20022;-71
2023/10/26 01:26:57;;;;;;;0.88;0.50;;;10.40;99.90;;;;;;7571588;19;20019;-72
2023/10/26 01:29:30;;;;;;;0.85;0.40;;;10.40;99.90;;;;;;7575175;19;20026;-71
2023/10/26 01:32:02;;;;;;;0.95;0.47;;;10.40;99.90;;;;;;7564253;19;20038;-71
2023/10/26 01:34:34;;;;;;;4.22;0.55;;;10.30;99.90;;;;;;7578254;19;20029;-71
2023/10/26 01:37:07;;;;;;;1.70;0.52;;;10.20;99.90;;;;;;7570495;19;20630;-71
2023/10/26 01:39:39;;;;;;;2.78;0.70;;;10.30;99.90;;;;;;7562476;19;20025;-70
2023/10/26 01:42:13;;;;;;;1.13;0.70;;;10.30;99.90;;;;;;7560143;19;20018;-71
2023/10/26 01:44:46;;;;;;;1.30;0.47;;;10.30;99.90;;;;;;7567287;19;20468;-71
2023/10/26 01:47:18;;;;;;;0.52;0.40;;;10.30;99.90;;;;;;7560670;19;20043;-71
2023/10/26 01:49:50;;;;;;;2.35;0.30;;;10.30;99.90;;;;;;7561054;19;20052;-71
2023/10/26 01:52:23;;;;;;;1.80;0.43;;;10.40;99.90;;;;;;7558136;19;20015;-71
2023/10/26 01:54:55;;;;;;;1.50;0.40;;;10.40;99.90;;;;;;7562021;19;20014;-72
2023/10/26 01:57:27;;;;;;;3.35;0.63;;;10.40;99.90;;;;;;7563103;19;20045;-71
2023/10/26 01:59:59;;;;;;;2.58;0.40;;;10.30;99.90;;;;;;7565339;19;20026;-71
2023/10/26 02:02:32;;;;;;;0.90;0.60;;;10.30;99.90;;;;;;7557373;19;20678;-71
2023/10/26 02:05:05;;;;;;;1.23;0.30;;;10.20;99.90;;;;;;7561060;19;20623;-71
2023/10/26 02:07:37;;;;;;;3.27;0.60;;;10.30;99.90;;;;;;7556991;19;20021;-71
2023/10/26 02:10:14;;;;;;;1.45;0.40;;;10.30;99.90;;;;;;7555744;19;20380;-72
2023/10/26 02:12:46;;;;;;;0.77;0.40;;;10.30;99.90;;;;;;7540148;19;20014;-70
2023/10/26 02:15:20;;;;;;;;;;;10.30;99.90;;;;;;7556465;19;20375;-71
2023/10/26 02:17:52;;;;;;;2.33;0.47;;;10.20;99.90;;;;;;7553365;19;19933;-70
2023/10/26 02:20:26;;;;;;;1.35;0.50;;;10.30;99.90;;;;;;7555247;19;20025;-72
2023/10/26 02:22:58;;;;;;;4.68;0.50;;;10.30;99.90;;;;;;7562357;19;20018;-72
2023/10/26 02:25:31;;;;;;;1.30;0.40;;;10.30;99.90;;;;;;7551485;19;20052;-71
2023/10/26 02:28:04;;;;;;;1.00;0.37;;;10.30;99.90;;;;;;7559326;19;20366;-71
2023/10/26 02:30:36;;;;;;;0.68;0.40;;;10.30;99.90;;;;;;7566242;19;20015;-71
2023/10/26 02:33:08;;;;;;;0.63;0.40;;;10.30;99.90;;;;;;7549433;19;20086;-71
2023/10/26 02:35:41;;;;;;;1.05;0.20;;;10.30;99.90;;;;;;7564482;19;20014;-71
2023/10/26 02:38:13;;;;;;;0.70;0.43;;;10.20;99.90;;;;;;7557436;19;20097;-71
2023/10/26 02:40:46;;;;;;;1.40;0.47;;;10.30;99.90;;;;;;7558200;19;20022;-71
2023/10/26 02:43:19;;;;;;;1.55;0.52;;;10.40;99.90;;;;;;7561666;19;20022;-72
2023/10/26 02:46:00;;;;;;;2.85;0.40;;;10.40;99.90;;;;;;7552861;19;20014;-71
2023/10/26 02:48:33;;;;;;;1.63;0.63;;;10.40;99.90;;;;;;7554953;19;20011;-71
2023/10/26 02:51:06;;;;;;;0.77;0.30;;;10.30;99.90;;;;;;7558336;19;20018;-72
2023/10/26 02:53:39;;;;;;;0.70;0.23;;;10.20;99.90;;;;;;7553739;19;20028;-71
2023/10/26 02:56:12;;;;;;;0.93;0.50;;;10.20;99.90;;;;;;7558837;19;20024;-71
2023/10/26 02:58:44;;;;;;;0.95;0.43;;;10.20;99.90;;;;;;7565617;19;20358;-70
2023/10/26 03:01:17;;;;;;;1.02;0.40;;;10.10;99.90;;;;;;7548191;19;22186;-71
2023/10/26 03:03:49;;;;;;;1.70;0.50;;;10.10;99.90;;;;;;7546114;19;20013;-71
2023/10/26 03:06:22;;;;;;;1.02;0.50;;;10.00;99.90;;;;;;7551675;19;20090;-72
2023/10/26 03:08:55;;;;;;;2.47;0.40;;;10.00;99.90;;;;;;7552535;19;20878;-71
2023/10/26 03:11:27;;;;;;;1.88;1.20;;;9.90;99.90;;;;;;7561124;19;20023;-71
2023/10/26 03:14:00;;;;;;;1.88;0.95;;;9.90;99.90;;;;;;7553447;19;20015;-71
2023/10/26 03:16:33;;;;;;;0.63;0.50;;;9.90;99.90;;;;;;7546735;19;20022;-71
2023/10/26 03:19:06;;;;;;;0.98;0.50;;;9.90;99.90;;;;;;7546624;19;20317;-71
2023/10/26 03:21:38;;;;;;;0.60;0.40;;;9.90;99.90;;;;;;7548944;19;20014;-71
2023/10/26 03:24:11;;;;;;;0.80;0.40;;;9.90;99.90;;;;;;7552563;19;20010;-71
2023/10/26 03:26:44;;;;;;;0.82;0.50;;;9.90;99.90;;;;;;7546712;19;20007;-71
2023/10/26 03:29:16;;;;;;;0.65;0.40;;;10.00;99.90;;;;;;7554513;19;20303;-71
2023/10/26 03:31:48;;;;;;;0.43;0.30;;;10.00;99.90;;;;;;7547810;19;21202;-71
2023/10/26 03:34:21;;;;;;;1.08;0.30;;;10.10;99.90;;;;;;7548900;19;20014;-72
2023/10/26 03:36:53;;;;;;;1.02;0.38;;;10.10;99.90;;;;;;7549977;19;20037;-71
2023/10/26 03:39:26;;;;;;;1.75;0.30;;;10.10;99.90;;;;;;7549561;19;20010;-72
2023/10/26 03:41:58;;;;;;;1.30;0.40;;;10.20;99.90;;;;;;7545181;19;20106;-71
2023/10/26 03:44:32;;;;;;;0.50;0.38;;;10.20;99.90;;;;;;7547846;19;20018;-71
2023/10/26 03:47:04;;;;;;;0.40;0.30;;;10.20;99.90;;;;;;7546628;19;20725;-71
2023/10/26 03:49:37;;;;;;;1.33;0.40;;;10.30;99.90;;;;;;7548230;19;20029;-70
2023/10/26 03:52:09;;;;;;;2.53;0.45;;;10.20;99.90;;;;;;7540264;19;21208;-71
2023/10/26 03:54:42;;;;;;;0.65;0.35;;;10.20;99.90;;;;;;7541108;19;25440;-71
2023/10/26 03:57:15;;;;;;;1.17;0.30;;;10.20;99.90;;;;;;7548956;19;20045;-71
2023/10/26 03:59:49;;;;;;;0.65;0.50;;;10.20;99.90;;;;;;7543890;19;20023;-71
2023/10/26 04:02:21;;;;;;;0.77;0.30;;;10.30;99.90;;;;;;7550297;19;20442;-71
2023/10/26 04:04:55;;;;;;;0.90;0.40;;;10.30;99.90;;;;;;7546397;19;20022;-71
2023/10/26 04:07:28;;;;;;;0.93;0.40;;;10.30;99.90;;;;;;7548996;19;20010;-70
2023/10/26 04:10:05;;;;;;;1.40;0.50;;;10.30;99.90;;;;;;7538372;19;21450;-70
2023/10/26 04:12:37;;;;;;;1.77;0.45;;;10.20;99.90;;;;;;7551615;19;20261;-71
2023/10/26 04:15:10;;;;;;;0.63;0.50;;;10.20;99.90;;;;;;7553812;19;20068;-71
2023/10/26 04:17:43;;;;;;;2.42;0.50;;;10.10;99.90;;;;;;7540714;19;20197;-72
2023/10/26 04:20:16;;;;;;;2.20;0.43;;;10.00;99.90;;;;;;7550125;19;20020;-72
2023/10/26 04:22:48;;;;;;;1.23;0.52;;;10.10;99.90;;;;;;7540927;19;20670;-72
2023/10/26 04:25:21;;;;;;;1.52;0.45;;;10.00;99.90;;;;;;7536477;19;20731;-71
2023/10/26 04:27:57;;;;;;;0.80;0.30;;;10.00;99.90;;;;;;7537026;19;20092;-70
2023/10/26 04:30:31;;;;;;;2.38;0.60;;;9.90;99.90;;;;;;7569621;19;20761;-71
2023/10/26 04:33:03;;;;;;;1.25;0.63;;;9.80;99.90;;;;;;7539129;19;20010;-73
2023/10/26 04:35:41;;;;;;;1.02;0.80;;;9.80;99.90;;;;;;7558704;19;20022;-71
2023/10/26 04:38:14;;;;;;;1.25;0.68;;;9.80;99.90;;;;;;7558995;19;20014;-72
2023/10/26 04:40:47;;;;;;;3.28;0.85;;;9.80;99.90;;;;;;7552292;19;20635;-71
2023/10/26 04:43:20;;;;;;;1.10;0.60;;;9.80;99.90;;;;;;7565242;19;20014;-71
2023/10/26 04:45:52;;;;;;;4.27;1.10;;;9.70;99.90;;;;;;7534312;19;20018;-72
2023/10/26 04:48:25;;;;;;;1.65;0.90;;;9.70;99.90;;;;;;7531919;19;20022;-72
2023/10/26 04:50:57;;;;;;;3.87;0.60;;;9.80;99.90;;;;;;7549736;19;20018;-71
2023/10/26 04:53:30;;;;;;;2.92;0.70;;;9.80;99.90;;;;;;7557213;19;20018;-71
2023/10/26 04:56:02;;;;;;;0.85;0.60;;;9.80;99.90;;;;;;7550682;19;20014;-73
2023/10/26 04:58:35;;;;;;;1.50;0.60;;;9.80;99.90;;;;;;7539160;19;20955;-73
2023/10/26 05:01:07;;;;;;;2.05;0.70;;;9.70;99.90;;;;;;7531067;19;20300;-71
2023/10/26 05:03:39;;;;;;;1.83;0.60;;;9.60;99.90;;;;;;7550810;19;20039;-72
2023/10/26 05:06:13;;;;;;;1.27;0.70;;;9.50;99.90;;;;;;7564807;19;20019;-72
2023/10/26 05:08:49;;;;;;;1.27;0.70;;;9.40;99.90;;;;;;7559729;19;20014;-74
2023/10/26 05:11:22;;;;;;;1.30;0.63;;;9.20;99.90;;;;;;7557157;19;20018;-73
2023/10/26 05:13:55;;;;;;;2.13;0.70;;;9.20;99.90;;;;;;7549495;19;20388;-72
2023/10/26 05:16:28;;;;;;;2.65;0.80;;;9.20;99.90;;;;;;7523137;19;20309;-72
2023/10/26 05:19:02;;;;;;;3.97;0.98;;;9.10;99.90;;;;;;7543822;19;20376;-73
2023/10/26 05:21:34;;;;;;;;;;;9.10;99.90;;;;;;7538235;19;20015;-73
2023/10/26 05:24:07;;;;;;;3.22;1.10;;;9.10;99.90;;;;;;7541076;19;19914;-72
2023/10/26 05:26:39;;;;;;;2.17;0.70;;;9.00;99.90;;;;;;7547239;19;20377;-72
2023/10/26 05:29:11;;;;;;;1.33;0.70;;;9.00;99.90;;;;;;7546170;19;20011;-72
2023/10/26 05:31:45;;;;;;;1.15;0.80;;;9.00;99.90;;;;;;7570618;19;21410;-72
2023/10/26 05:34:17;;;;;;;1.52;0.85;;;9.00;99.90;;;;;;7545342;19;20102;-73
2023/10/26 05:36:51;;;;;;;1.67;1.10;;;9.00;99.90;;;;;;7559457;19;20014;-73
2023/10/26 05:39:24;;;;;;;5.03;1.55;;;9.10;99.90;;;;;;7578226;19;21267;-74
2023/10/26 05:41:56;;;;;;;4.30;2.30;;;9.20;99.90;;;;;;7588400;19;20033;-74
2023/10/26 05:44:30;;;;;;;5.38;2.10;;;9.20;99.90;;;;;;7601162;19;20846;-74
2023/10/26 05:47:03;;;;;;;4.35;1.98;;;9.20;99.90;;;;;;7595573;19;20399;-74
2023/10/26 05:49:35;;;;;;;4.07;1.73;;;9.30;99.90;;;;;;7606931;19;20026;-73
2023/10/26 05:52:08;;;;;;;2.08;1.50;;;9.30;99.90;;;;;;7601160;19;20558;-73
2023/10/26 05:54:40;;;;;;;2.22;1.30;;;9.30;99.90;;;;;;7610009;19;20928;-74
2023/10/26 05:57:14;;;;;;;4.18;1.65;;;9.30;99.90;;;;;;7590006;19;20011;-74
2023/10/26 05:59:46;;;;;;;3.13;1.10;;;9.30;99.90;;;;;;7588292;19;20107;-74
2023/10/26 06:02:19;;;;;;;1.48;0.82;;;9.30;99.90;;;;;;7593330;19;20035;-73
2023/10/26 06:04:53;;;;;;;2.50;1.00;;;9.40;99.90;;;;;;7594666;19;20503;-74
2023/10/26 06:07:26;;;;;;;2.67;1.00;;;9.40;99.90;;;;;;7598178;19;20512;-75
2023/10/26 06:09:58;;;;;;;3.17;1.42;;;9.40;99.90;;;;;;7591223;19;20015;-74
2023/10/26 06:12:33;;;;;;;3.83;1.02;;;9.40;99.90;;;;;;7591620;19;20020;-73
2023/10/26 06:15:05;;;;;;;4.13;1.27;;;9.30;99.90;;;;;;7558103;19;20018;-71
2023/10/26 06:17:38;;;;;;;2.22;1.15;;;9.30;99.90;;;;;;7575005;19;20015;-73
2023/10/26 06:20:11;;;;;;;1.88;0.90;;;9.30;99.90;;;;;;7583564;19;20024;-72
2023/10/26 06:22:44;;;;;;;8.77;1.38;;;9.30;99.90;;;;;;7594474;19;20018;-74
2023/10/26 06:25:16;;;;;;;3.28;1.20;;;9.30;99.90;;;;;;7595279;19;20011;-73
2023/10/26 06:27:49;;;;;;;1.27;0.90;;;9.40;99.90;;;;;;7585789;19;20035;-73
2023/10/26 06:30:23;;;;;;;2.72;1.17;;;9.50;99.90;;;;;;7564501;19;20026;-73
2023/10/26 06:32:55;;;;;;;5.95;1.30;;;9.50;99.90;;;;;;7574121;19;20034;-73
2023/10/26 06:35:28;;;;;;;2.17;1.20;;;9.60;99.90;;;;;;7576081;19;20019;-73
2023/10/26 06:38:00;;;;;;;3.85;1.45;;;9.60;99.90;;;;;;7589724;19;20018;-72
2023/10/26 06:40:32;;;;;;;5.65;1.67;;;9.70;99.90;;;;;;7578824;19;20064;-72
2023/10/26 06:43:05;;;;;;;4.43;1.58;;;9.70;99.90;;;;;;7558321;19;20022;-73
2023/10/26 06:45:37;;;;;;;2.40;1.85;;;9.80;99.90;;;;;;7586471;19;20043;-73
2023/10/26 06:48:09;;;;;;;4.53;1.00;;;9.80;99.90;;;;;;7573093;19;20361;-73
2023/10/26 06:50:42;;;;;;;2.55;1.10;;;9.80;99.90;;;;;;7594941;19;20018;-72
2023/10/26 06:53:16;;;;;;;1.55;0.82;;;9.90;99.90;;;;;;7600046;19;20018;-72
2023/10/26 06:55:49;;;;;;;1.80;0.77;;;9.90;99.90;;;;;;7591709;19;20113;-73
2023/10/26 06:58:21;;;;;;;1.70;0.68;;;9.90;99.90;;;;;;7574083;19;20098;-73
2023/10/26 07:00:54;;;;;;;1.30;0.50;;;10.00;99.90;;;;;;7599019;19;20014;-73
2023/10/26 07:03:26;;;;;;;2.90;1.00;;;10.00;99.90;;;;;;7599833;19;20035;-73
2023/10/26 07:06:02;;;;;;;3.13;0.88;;;10.00;99.90;;;;;;7604417;19;20014;-72
2023/10/26 07:08:34;;;;;;;0.98;0.70;;;10.00;99.90;;;;;;7604041;19;20010;-73
2023/10/26 07:11:07;;;;;;;3.42;0.65;;;10.10;99.90;;;;;;7603197;19;20026;-74
2023/10/26 07:13:39;;;;;;;2.47;0.95;;;10.10;99.90;;;;;;7606308;19;22754;-73
2023/10/26 07:16:15;;;;;;;2.13;0.80;;;10.20;99.90;;;;;;7604279;19;20010;-72
2023/10/26 07:18:47;;;;;;;1.15;0.80;;;10.20;99.90;;;;;;7604407;19;20024;-72
2023/10/26 07:21:19;;;;;;;2.65;0.93;;;10.20;99.90;;;;;;7600619;19;20014;-72
2023/10/26 07:23:52;;;;;;;2.03;0.60;;;10.20;99.90;;;;;;7609565;19;20015;-72
2023/10/26 07:26:24;;;;;;;2.97;1.65;;;10.30;99.90;;;;;;7582507;19;20048;-72
2023/10/26 07:28:57;;;;;;;4.43;1.98;;;10.40;99.90;;;;;;7589617;19;20021;-72
2023/10/26 07:31:29;;;;;;;8.90;1.55;;;10.50;99.90;;;;;;7585676;19;20518;-72
2023/10/26 07:34:01;;;;;;;2.75;1.00;;;10.50;99.90;;;;;;7592966;19;20035;-72
2023/10/26 07:36:34;;;;;;;2.55;1.40;;;10.50;99.90;;;;;;7596284;19;20030;-72
2023/10/26 07:39:08;;;;;;;1.65;1.17;;;10.60;99.90;;;;;;7593820;19;20058;-71
2023/10/26 07:42:02;;;;;;;4.93;0.90;;;10.60;99.90;;;;;;7589914;19;20033;-73
2023/10/26 07:44:55;;;;;;;6.47;2.42;;;10.70;99.90;;;;;;7589185;19;20010;-71
2023/10/26 07:47:27;;;;;;;3.72;1.50;;;10.80;99.90;;;;;;7587376;19;20816;-71
2023/10/26 07:49:59;;;;;;;1.88;1.10;;;10.90;99.90;;;;;;7590390;19;20031;-71
2023/10/26 07:52:32;;;;;;;4.82;0.80;;;11.00;99.90;;;;;;7593861;19;20014;-71
2023/10/26 07:55:04;;;;;;;1.20;0.77;;;11.00;99.90;;;;;;7582950;19;20018;-72
2023/10/26 07:57:37;;;;;;;3.47;0.90;;;11.20;99.90;;;;;;7583342;19;20413;-72
2023/10/26 08:00:11;;;;;;;6.03;1.35;;;11.20;99.90;;;;;;7589059;19;20532;-72
2023/10/26 08:02:43;;;;;;;2.92;1.00;;;11.30;99.90;;;;;;7584998;19;20091;-72
2023/10/26 08:05:17;;;;;;;3.92;1.58;;;11.30;99.90;;;;;;7577552;19;20017;-72
2023/10/26 08:07:49;;;;;;;2.60;1.27;;;11.30;99.90;;;;;;7593713;19;21795;-73
2023/10/26 08:10:24;;;;;;;3.20;1.17;;;11.30;99.90;;;;;;7592834;19;20093;-72
2023/10/26 08:12:58;;;;;;;2.55;1.20;;;11.20;99.90;;;;;;7583309;19;20022;-72
2023/10/26 08:15:31;;;;;;;4.45;1.90;;;11.20;99.90;;;;;;7593469;19;20015;-72
2023/10/26 08:18:25;;;;;;;5.30;1.75;;;11.20;99.90;;;;;;7588873;19;20014;-72
2023/10/26 08:20:58;;;;;;;8.38;1.88;;;11.20;99.90;;;;;;7591783;19;20035;-72
2023/10/26 08:23:32;;;;;;;4.35;1.50;;;11.20;99.90;;;;;;7591373;19;20014;-74
2023/10/26 08:26:09;;;;;;;7.47;1.27;;;11.20;99.90;;;;;;7573483;19;20453;-73
2023/10/26 08:28:42;;;;;;;3.67;1.27;;;11.20;99.90;;;;;;7564108;19;20062;-73
2023/10/26 08:31:15;;;;;;;5.65;1.70;;;11.30;99.90;;;;;;7589567;19;20020;-73
2023/10/26 08:33:47;;;;;;;3.53;1.17;;;11.30;99.90;;;;;;7581480;19;20022;-73
2023/10/26 08:36:20;;;;;;;1.40;1.10;;;11.30;99.90;;;;;;7592896;19;20905;-73
2023/10/26 08:38:52;;;;;;;5.88;2.05;;;11.30;99.90;;;;;;7598712;19;20854;-74
2023/10/26 08:41:30;;;;;;;1.55;0.95;;;11.30;99.90;;;;;;7603467;19;20014;-74
2023/10/26 08:44:03;;;;;;;4.05;0.80;;;11.40;99.90;;;;;;7598931;19;20023;-74
2023/10/26 08:46:37;;;;;;;1.50;0.90;;;11.30;99.90;;;;;;7595617;19;20014;-73
2023/10/26 08:49:11;;;;;;;1.08;0.60;;;11.30;99.90;;;;;;7598872;19;20582;-74
2023/10/26 08:51:44;;;;;;;3.80;0.70;;;11.30;99.90;;;;;;7599297;19;20010;-74
2023/10/26 08:54:17;;;;;;;1.25;0.80;;;11.20;99.90;;;;;;7600104;19;20358;-72
2023/10/26 08:56:49;;;;;;;1.27;0.70;;;11.20;99.90;;;;;;7595194;19;20039;-73
2023/10/26 08:59:23;;;;;;;4.23;1.13;;;11.10;99.90;;;;;;7594931;19;20042;-73
2023/10/26 09:01:55;;;;;;;;;;;11.20;99.90;;;;;;7595358;19;20047;-73
2023/10/26 09:04:28;;;;;;;0.63;0.50;;;11.00;99.90;;;;;;7610767;19;19915;-73
2023/10/26 09:07:00;;;;;;;2.03;0.50;;;11.00;99.90;;;;;;7610935;19;20010;-74
2023/10/26 09:13:26;;;;;;;3.53;0.85;;;10.90;99.90;;;;;;7574466;19;20053;-73
2023/10/26 09:15:59;;;;;;;1.60;0.98;;;11.00;99.90;;;;;;7565960;19;20015;-73
2023/10/26 09:18:33;;;;;;;8.98;7.10;;;11.00;99.90;;;;;;7576388;19;20022;-73
2023/10/26 09:21:08;;;;;;;3.60;2.60;;;11.00;99.90;;;;;;7572182;19;20014;-73
2023/10/26 09:23:41;;;;;;;3.10;1.42;;;11.00;99.90;;;;;;7605419;19;20026;-74
2023/10/26 09:26:13;;;;;;;2.17;0.98;;;11.00;99.90;;;;;;7600343;19;20020;-72
2023/10/26 09:28:53;;;;;;;1.17;0.60;;;11.00;99.90;;;;;;7593096;19;20050;-71
2023/10/26 09:31:26;;;;;;;4.65;0.95;;;11.00;99.90;;;;;;7608300;19;20933;-76
2023/10/26 09:34:10;;;;;;;1.63;0.90;;;11.00;99.90;;;;;;7605668;19;20015;-72
2023/10/26 09:36:42;;;;;;;1.10;0.52;;;10.90;99.90;;;;;;7608344;19;20022;-72
2023/10/26 09:39:14;;;;;;;1.77;0.50;;;10.90;99.90;;;;;;7588609;19;21310;-72
2023/10/26 09:41:47;;;;;;;2.92;0.70;;;10.90;99.90;;;;;;7588042;19;20014;-71
2023/10/26 09:44:19;;;;;;;1.63;0.68;;;10.80;99.90;;;;;;7548491;19;20026;-73
2023/10/26 09:46:52;;;;;;;1.15;0.82;;;10.90;99.90;;;;;;7584582;19;20019;-73
2023/10/26 09:49:26;;;;;;;0.95;0.68;;;11.00;99.90;;;;;;7576010;19;20019;-73
2023/10/26 09:51:59;;;;;;;0.95;0.80;;;11.00;99.90;;;;;;7573418;19;20018;-72
2023/10/26 09:54:33;;;;;;;1.60;0.90;;;11.00;99.90;;;;;;7575067;19;20052;-73
2023/10/26 09:57:27;;;;;;;3.50;0.98;;;11.10;99.90;;;;;;7567798;19;20007;-73
2023/10/26 10:00:06;;;;;;;3.67;1.25;;;11.10;99.90;;;;;;7584714;19;20112;-73
2023/10/26 10:02:43;;;;;;;;;;;11.00;99.90;;;;;;7580344;19;20489;-72
2023/10/26 10:05:37;;;;;;;3.08;0.80;;;11.00;99.90;;;;;;7574948;19;20017;-72
2023/10/26 10:08:10;;;;;;;3.17;1.02;;;11.00;99.90;;;;;;7571192;19;20014;-72
2023/10/26 10:11:15;;;;;;;1.00;0.70;;;11.10;99.90;;;;;;7582875;19;20546;-72
2023/10/26 10:13:49;;;;;;;1.30;0.70;;;11.20;99.90;;;;;;7590041;19;21142;-72
2023/10/26 10:16:36;;;;;;;3.42;2.40;;;11.20;99.90;;;;;;7587191;19;20014;-71
2023/10/26 10:19:23;;;;;;;6.18;2.20;;;11.40;99.90;;;;;;7587381;19;20614;-72
2023/10/26 10:21:55;;;;;;;5.47;1.98;;;11.30;99.90;;;;;;7585589;19;20060;-72
2023/10/26 10:24:42;;;;;;;4.07;2.20;;;11.30;99.90;;;;;;7587002;19;20029;-71
2023/10/26 10:27:15;;;;;;;4.57;2.17;;;11.40;99.90;;;;;;7564490;19;20839;-71
2023/10/26 10:29:48;;;;;;;4.63;2.50;;;11.30;99.90;;;;;;7593741;19;20051;-74
2023/10/26 10:32:46;;;;;;;6.25;2.35;;;11.40;99.90;;;;;;7537847;19;20271;-73
2023/10/26 10:35:22;;;;;;;3.75;1.88;;;11.50;99.90;;;;;;7571381;19;20022;-73
2023/10/26 10:40:54;;;;;;;5.97;2.80;;;11.50;99.90;;;;;;7560403;19;20546;-73
2023/10/26 10:43:40;;;;;;;6.22;3.00;;;11.50;99.90;;;;;;7580035;19;20019;-73
2023/10/26 10:46:21;;;;;;;2.00;1.38;;;11.60;99.90;;;;;;7537072;19;20021;-71
2023/10/26 10:48:54;;;;;;;4.22;2.00;;;11.60;99.90;;;;;;7581156;19;21142;-74
2023/10/26 10:51:38;;;;;;;2.28;1.73;;;11.60;99.90;;;;;;7587533;19;20077;-72
2023/10/26 10:54:13;;;;;;;3.30;2.25;;;11.70;99.90;;;;;;7586780;19;20018;-72
2023/10/26 10:56:49;;;;;;;4.28;2.28;;;11.60;99.90;;;;;;7571549;19;21490;-72
2023/10/26 10:59:25;;;;;;;2.95;1.65;;;11.70;99.90;;;;;;7591020;19;20505;-73
2023/10/26 11:04:29;;;;;;;4.30;1.85;;;11.80;99.90;;;;;;7629944;19;20366;-69
2023/10/26 11:07:02;;;;;;;5.88;2.10;;;11.80;99.90;;;;;;7633551;19;20875;-69
2023/10/26 11:09:38;;;;;;;3.90;2.05;;;11.90;99.90;;;;;;7635949;19;20043;-70
2023/10/26 11:12:12;;;;;;;3.67;2.33;;;12.00;99.90;;;;;;7628147;19;20068;-69
2023/10/26 11:14:49;;;;;;;4.43;2.35;;;12.00;99.90;;;;;;7620108;19;20025;-68
2023/10/26 11:17:23;;;;;;;2.28;1.55;;;12.10;99.90;;;;;;7613824;19;20086;-68
2023/10/26 11:19:56;;;;;;;4.53;2.10;;;12.10;99.90;;;;;;7619501;19;20078;-69
2023/10/26 11:22:28;;;;;;;5.20;2.40;;;12.10;99.90;;;;;;7616235;19;20676;-70
2023/10/26 11:25:00;;;;;;;6.03;2.35;;;12.20;99.90;;;;;;7620096;19;20522;-66
2023/10/26 11:27:38;;;;;;;5.18;2.85;;;12.30;99.90;;;;;;7599474;19;20094;-67
2023/10/26 11:30:13;;;;;;;2.70;1.67;;;12.40;99.90;;;;;;7620942;19;20026;-67
2023/10/26 11:32:46;;;;;;;2.80;2.10;;;12.50;99.90;;;;;;7603859;19;20038;-66
2023/10/26 11:35:18;;;;;;;2.60;1.93;;;12.50;99.90;;;;;;7620086;19;20018;-68
2023/10/26 11:37:57;;;;;;;4.85;2.85;;;12.70;99.90;;;;;;7641031;19;20025;-67
2023/10/26 11:40:31;;;;;;;5.82;3.22;;;12.90;99.90;;;;;;7635132;19;20377;-68
2023/10/26 11:43:03;;;;;;;6.30;2.90;;;13.10;99.90;;;;;;7636827;19;20018;-68
2023/10/26 11:45:50;;;;;;;4.03;2.20;;;13.20;99.90;;;;;;7634319;19;20206;-66
2023/10/26 11:48:27;;;;;;;5.90;2.08;;;13.30;99.90;;;;;;7634669;19;20054;-68
2023/10/26 11:50:59;;;;;;;3.78;2.13;;;13.30;99.90;;;;;;7637009;19;20022;-67
2023/10/26 11:53:31;;;;;;;7.38;2.53;;;13.40;99.90;;;;;;7633702;19;20014;-68
2023/10/26 11:56:04;;;;;;;2.42;1.30;;;13.60;99.90;;;;;;7616296;19;20018;-67
2023/10/26 11:58:38;;;;;;;4.28;1.30;;;13.80;99.90;;;;;;7624817;19;20026;-68
2023/10/26 12:01:10;;;;;;;2.45;1.52;;;14.00;99.90;;;;;;7614206;19;20042;-68
2023/10/26 12:03:44;;;;;;;1.50;1.00;;;14.40;99.90;;;;;;7618854;19;20010;-68
2023/10/26 12:06:16;;;;;;;4.97;1.30;;;14.50;99.90;;;;;;7633057;19;20061;-68
2023/10/26 12:08:48;;;;;;;5.22;1.35;;;14.60;99.90;;;;;;7617787;19;20010;-67
2023/10/26 12:11:21;;;;;;;3.78;0.95;;;14.60;99.90;;;;;;7608822;19;20018;-71
2023/10/26 12:13:55;;;;;;;1.33;0.93;;;14.70;99.90;;;;;;7595820;19;20014;-72
2023/10/26 12:16:27;;;;;;;1.48;0.90;;;14.90;99.90;;;;;;7542343;19;20021;-71
2023/10/26 12:19:00;;;;;;;3.38;0.82;;;15.20;99.90;;;;;;7546640;19;25153;-74
2023/10/26 12:21:32;;;;;;;1.75;0.80;;;15.50;99.90;;;;;;7583257;19;20051;-72
2023/10/26 12:24:05;;;;;;;0.80;0.70;;;15.60;99.90;;;;;;7579990;19;20023;-72
2023/10/26 12:26:37;;;;;;;4.80;0.90;;;15.50;99.90;;;;;;7581242;19;20581;-75
2023/10/26 12:29:10;;;;;;;2.25;0.85;;;15.60;99.90;;;;;;7573164;19;20334;-72
2023/10/26 12:31:42;;;;;;;3.42;1.00;;;15.40;99.90;;;;;;7577791;19;20497;-74
2023/10/26 12:34:14;;;;;;;2.03;0.80;;;15.30;99.90;;;;;;7569241;19;20018;-72
2023/10/26 12:36:47;;;;;;;1.05;0.60;;;15.30;99.90;;;;;;7557797;19;20492;-74
2023/10/26 12:39:19;;;;;;;2.25;0.70;;;15.30;99.90;;;;;;7567671;19;20026;-72
2023/10/26 12:41:51;;;;;;;1.00;0.80;;;15.50;99.90;;;;;;7576740;19;20440;-74
2023/10/26 12:44:24;;;;;;;3.38;0.85;;;15.90;99.90;;;;;;7538244;19;20024;-74
2023/10/26 12:46:57;;;;;;;3.83;0.98;;;16.20;99.90;;;;;;7558678;19;20022;-74
2023/10/26 12:49:29;;;;;;;4.32;0.50;;;15.90;99.90;;;;;;7554364;19;20690;-74
2023/10/26 12:52:02;;;;;;;2.28;1.35;;;15.70;99.90;;;;;;7544133;19;20017;-74
2023/10/26 12:54:34;;;;;;;1.15;0.70;;;15.30;99.90;;;;;;7559033;19;20344;-73
2023/10/26 12:57:07;;;;;;;1.67;1.00;;;15.00;99.90;;;;;;7572205;19;20421;-74
2023/10/26 12:59:39;;;;;;;0.95;0.88;;;14.80;99.90;;;;;;7564339;19;20010;-73
2023/10/26 13:02:11;;;;;;;3.88;0.77;;;14.50;99.90;;;;;;7574600;19;20013;-74
2023/10/26 13:04:44;;;;;;;1.15;0.57;;;14.50;99.90;;;;;;7561207;19;20023;-74
2023/10/26 13:07:17;;;;;;;3.92;0.70;;;14.20;99.90;;;;;;7579226;19;20642;-71
2023/10/26 13:09:49;;;;;;;3.65;0.60;;;14.00;99.90;;;;;;7561353;19;20022;-77
2023/10/26 13:12:22;;;;;;;2.67;1.00;;;13.90;99.90;;;;;;7549401;19;20018;-74
2023/10/26 13:14:54;;;;;;;3.38;0.80;;;13.70;99.90;;;;;;7539257;19;21335;-75
2023/10/26 13:17:35;;;;;;;3.30;0.80;;;13.60;99.90;;;;;;7551074;19;20657;-74
2023/10/26 13:20:09;;;;;;;1.20;0.88;;;13.60;99.90;;;;;;7531946;19;20044;-75
2023/10/26 13:22:42;;;;;;;3.92;1.38;;;13.60;99.90;;;;;;7566367;19;20019;-75
2023/10/26 13:25:14;;;;;;;3.72;1.02;;;13.60;99.90;;;;;;7580698;19;20285;-74
2023/10/26 13:27:47;;;;;;;1.25;0.80;;;13.70;99.90;;;;;;7574261;19;20302;-74
2023/10/26 13:30:19;;;;;;;1.38;0.70;;;13.70;99.90;;;;;;7574280;19;20093;-74
2023/10/26 13:32:52;;;;;;;1.65;1.30;;;13.80;99.90;;;;;;7579480;19;20287;-75
2023/10/26 13:35:24;;;;;;;4.73;1.27;;;13.90;99.90;;;;;;7577772;19;20760;-75